createdAt,value
2024-02-19T00:09:45.453Z,100
2024-02-19T00:38:57.160Z,100
2024-02-19T01:08:19.484Z,100
2024-02-19T01:37:40.278Z,100
2024-02-19T02:06:55.088Z,100
2024-02-19T02:36:03.244Z,100
2024-02-19T03:05:16.835Z,100
2024-02-19T03:34:32.475Z,100
2024-02-19T04:03:44.383Z,100
2024-02-19T04:32:56.661Z,100
2024-02-19T05:01:59.470Z,100
2024-02-19T05:31:09.262Z,100
2024-02-19T06:00:20.774Z,100
2024-02-19T06:29:37.538Z,100
2024-02-19T06:58:54.525Z,100
2024-02-19T07:28:07.066Z,100
2024-02-19T07:57:20.742Z,100
2024-02-19T08:26:30.118Z,100
2024-02-19T08:55:46.553Z,100
2024-02-19T09:25:04.330Z,100
2024-02-19T09:54:16.459Z,100
2024-02-19T10:23:32.015Z,100
2024-02-19T10:52:51.999Z,100
2024-02-19T11:22:12.682Z,100
2024-02-19T11:51:23.585Z,97
2024-02-19T12:20:37.987Z,95
2024-02-19T12:50:04.351Z,91
2024-02-19T13:19:18.994Z,83
2024-02-19T13:48:21.918Z,76
2024-02-19T14:17:29.463Z,78
2024-02-19T14:47:02.489Z,80
2024-02-19T15:15:35.011Z,81
2024-02-19T15:44:51.216Z,88
2024-02-19T16:14:08.705Z,92
2024-02-19T16:43:22.876Z,95
2024-02-19T17:12:35.050Z,96
2024-02-19T17:41:40.294Z,97
2024-02-19T18:10:59.916Z,96
2024-02-19T18:40:13.456Z,98
2024-02-19T19:09:18.753Z,100
2024-02-19T19:38:25.648Z,100
2024-02-19T20:07:38.272Z,100
2024-02-19T20:36:48.001Z,100
2024-02-19T21:05:51.292Z,100
2024-02-19T21:34:50.567Z,100
2024-02-19T22:03:44.569Z,100
2024-02-19T22:32:44.861Z,100
2024-02-19T23:01:53.877Z,100
2024-02-19T23:30:52.639Z,100
